Time;durP1;ratioP1;P1;durP2;ratioP2;P2;SDS_P1;SDS_P2;PMS_P1;PMS_P2;Temp;Humidity;BMP_temperature;BMP_pressure;BME280_temperature;BME280_humidity;BME280_pressure;Samples;Min_cycle;Max_cycle;Signal;HPM_P1;HPM_P2
2022/03/25 00:00:00;;;;;;;36.05;15.58;;;;;;;9.26;45.70;100132.23;4461321;77;28583;-76
2022/03/25 00:06:01;;;;;;;33.23;13.25;;;;;;;9.14;45.57;100123.91;4476433;77;28533;-77
2022/03/25 00:12:05;;;;;;;32.88;14.95;;;;;;;8.89;45.79;100124.84;4468090;77;28530;-77
2022/03/25 00:18:06;;;;;;;40.00;17.32;;;;;;;8.72;46.64;100121.07;4496331;77;28554;-77
2022/03/25 00:24:08;;;;;;;34.50;15.10;;;;;;;8.85;46.77;100120.37;4466294;77;28548;-77
2022/03/25 00:30:10;;;;;;;34.85;15.20;;;;;;;8.54;47.26;100116.66;4469547;77;28507;-77
2022/03/25 00:36:11;;;;;;;35.52;16.05;;;;;;;8.77;46.77;100103.91;4510133;77;28509;-76
2022/03/25 00:42:13;;;;;;;42.20;18.25;;;;;;;8.42;47.71;100110.44;4477288;77;28479;-77
2022/03/25 00:48:17;;;;;;;35.85;16.27;;;;;;;8.56;47.42;100111.97;4327635;79;28490;-78
2022/03/25 00:54:18;;;;;;;48.10;18.77;;;;;;;8.25;48.32;100101.81;4306852;79;28546;-78
2022/03/25 01:00:21;;;;;;;51.45;22.07;;;;;;;8.50;47.55;100103.65;4311705;79;28520;-78
2022/03/25 01:06:24;;;;;;;55.12;22.90;;;;;;;8.25;47.94;100092.96;4322822;79;28527;-76
2022/03/25 01:12:26;;;;;;;51.95;22.60;;;;;;;8.02;49.00;100092.09;4334397;79;28532;-77
2022/03/25 01:18:27;;;;;;;46.85;20.00;;;;;;;8.28;48.63;100093.42;4353136;79;28581;-77
2022/03/25 01:24:30;;;;;;;48.33;21.90;;;;;;;8.60;46.87;100083.74;4335521;79;28488;-77
2022/03/25 01:30:32;;;;;;;50.50;21.15;;;;;;;8.15;48.10;100093.25;4328151;79;28505;-76
2022/03/25 01:36:34;;;;;;;43.00;19.85;;;;;;;8.15;48.87;100085.22;4309508;79;28636;-75
2022/03/25 01:42:41;;;;;;;45.90;20.60;;;;;;;8.31;47.70;100078.30;4323517;79;28551;-77
2022/03/25 01:48:42;;;;;;;49.30;20.75;;;;;;;8.31;47.67;100078.79;4314769;79;28533;-78
2022/03/25 01:54:44;;;;;;;47.50;20.90;;;;;;;8.16;47.65;100081.02;4332102;79;28552;-78
2022/03/25 02:00:47;;;;;;;47.15;21.12;;;;;;;7.84;48.91;100083.12;4339112;79;28522;-79
2022/03/25 02:06:50;;;;;;;50.12;21.55;;;;;;;7.80;49.37;100078.66;4359987;79;28481;-79
2022/03/25 02:12:51;;;;;;;46.80;21.57;;;;;;;7.66;49.63;100079.52;4367125;79;28539;-78
2022/03/25 02:18:55;;;;;;;50.33;21.45;;;;;;;7.79;49.21;100083.69;4340156;79;28532;-78
2022/03/25 02:24:56;;;;;;;54.63;22.45;;;;;;;7.71;50.02;100084.31;4337770;79;28554;-78
2022/03/25 02:30:59;;;;;;;48.55;22.22;;;;;;;7.60;49.19;100090.45;4356868;79;28541;-77
2022/03/25 02:37:01;;;;;;;52.67;21.97;;;;;;;7.65;48.90;100090.72;4346217;79;28516;-77
2022/03/25 02:43:03;;;;;;;54.35;22.35;;;;;;;7.41;49.65;100090.48;4370876;79;28535;-77
2022/03/25 02:49:05;;;;;;;47.88;22.02;;;;;;;7.37;50.25;100090.55;4331302;79;29343;-76
2022/03/25 02:55:08;;;;;;;49.05;21.68;;;;;;;7.31;50.13;100092.11;4351579;79;28724;-78
2022/03/25 03:01:10;;;;;;;46.13;21.02;;;;;;;7.39;50.08;100090.69;4325357;79;28544;-77
2022/03/25 03:07:11;;;;;;;50.78;22.62;;;;;;;7.38;49.81;100097.55;4394219;78;28503;-76
2022/03/25 03:13:13;;;;;;;53.02;21.75;;;;;;;7.26;50.33;100099.84;4352219;79;28533;-78
2022/03/25 03:19:14;;;;;;;49.80;21.57;;;;;;;7.18;50.64;100102.09;4317980;79;28473;-76
2022/03/25 03:25:16;;;;;;;44.98;20.30;;;;;;;7.37;49.64;100105.26;4344828;79;28517;-77
2022/03/25 03:31:17;;;;;;;45.80;22.07;;;;;;;7.50;49.55;100104.63;4329646;79;28493;-78
2022/03/25 03:37:19;;;;;;;46.50;21.87;;;;;;;7.23;50.41;100102.36;4346016;79;28494;-77
2022/03/25 03:43:21;;;;;;;52.60;21.77;;;;;;;7.36;49.79;100104.41;4511339;77;28513;-78
2022/03/25 03:49:22;;;;;;;47.83;22.25;;;;;;;7.11;50.82;100098.48;4493487;77;28498;-77
2022/03/25 03:55:24;;;;;;;46.55;21.33;;;;;;;7.21;50.31;100102.25;4509416;77;28566;-78
2022/03/25 04:01:43;;;;;;;46.05;20.35;;;;;;;7.39;49.89;100104.56;4489565;77;43757;-78
2022/03/25 04:07:48;;;;;;;46.28;20.02;;;;;;;7.07;50.78;100102.02;4468446;77;43794;-78
2022/03/25 04:13:49;;;;;;;44.80;20.20;;;;;;;6.82;51.70;100100.92;4468368;77;28508;-78
2022/03/25 04:19:50;;;;;;;50.20;20.82;;;;;;;6.82;51.57;100105.42;4483770;77;28517;-77
2022/03/25 04:25:51;;;;;;;42.83;19.35;;;;;;;6.87;52.89;100101.72;4502847;77;28511;-78
2022/03/25 04:31:53;;;;;;;43.50;18.87;;;;;;;6.86;52.46;100105.89;4484818;77;28526;-78
2022/03/25 04:37:56;;;;;;;44.65;20.97;;;;;;;6.82;53.15;100108.09;4475104;77;28516;-79
2022/03/25 04:43:57;;;;;;;48.50;20.05;;;;;;;6.94;53.52;100104.49;4490860;77;28515;-80
2022/03/25 04:49:58;;;;;;;46.95;20.15;;;;;;;6.84;53.37;100106.09;4449907;77;28511;-78
2022/03/25 04:56:01;;;;;;;42.45;20.02;;;;;;;6.65;52.63;100114.08;4482246;77;28555;-78
2022/03/25 05:02:03;;;;;;;44.45;20.10;;;;;;;6.81;52.64;100119.31;4477828;77;43821;-77
2022/03/25 05:08:05;;;;;;;48.52;20.90;;;;;;;6.89;52.64;100125.61;4517561;77;28499;-78
2022/03/25 05:14:07;;;;;;;44.95;20.20;;;;;;;7.17;52.85;100133.03;4484989;77;28535;-76
2022/03/25 05:20:09;;;;;;;48.28;20.90;;;;;;;7.29;51.76;100120.90;4470905;77;28529;-77
2022/03/25 05:26:11;;;;;;;44.45;21.00;;;;;;;7.36;53.31;100129.02;4465871;77;28544;-77
2022/03/25 05:32:13;;;;;;;44.58;21.80;;;;;;;7.60;53.12;100139.97;4455324;77;28508;-76
2022/03/25 05:38:15;;;;;;;53.30;22.52;;;;;;;7.72;52.84;100142.19;4488679;77;28519;-77
2022/03/25 05:44:17;;;;;;;50.90;23.87;;;;;;;7.97;52.48;100153.44;4491011;77;28558;-78
2022/03/25 05:50:20;;;;;;;59.40;26.45;;;;;;;8.14;52.78;100158.56;4462054;78;28559;-78
2022/03/25 05:56:21;;;;;;;65.22;29.57;;;;;;;8.33;53.27;100163.33;4475144;77;28559;-76
2022/03/25 06:02:22;;;;;;;67.50;32.63;;;;;;;8.73;51.95;100168.31;4476391;77;28507;-76
2022/03/25 06:08:24;;;;;;;74.90;32.23;;;;;;;9.07;50.30;100168.63;4456614;77;28536;-76
2022/03/25 06:14:26;;;;;;;62.67;29.15;;;;;;;9.30;50.60;100172.93;4354966;78;28495;-78
2022/03/25 06:20:28;;;;;;;62.78;28.23;;;;;;;9.46;49.67;100173.15;4355676;79;28519;-78
2022/03/25 06:26:30;;;;;;;57.93;27.20;;;;;;;9.79;48.45;100180.61;4430569;78;28472;-77
2022/03/25 06:32:31;;;;;;;59.70;27.25;;;;;;;10.15;47.57;100177.35;4509868;77;28480;-77
2022/03/25 06:38:33;;;;;;;62.25;28.90;;;;;;;10.25;47.33;100174.31;4498893;77;28562;-76
2022/03/25 06:44:35;;;;;;;64.77;30.05;;;;;;;10.46;46.63;100181.42;4496407;77;28491;-76
2022/03/25 06:50:37;;;;;;;67.75;30.35;;;;;;;10.67;46.08;100184.50;4510358;77;28510;-77
2022/03/25 06:56:40;;;;;;;74.50;32.95;;;;;;;10.92;44.94;100184.44;4482445;77;28523;-77
2022/03/25 07:02:43;;;;;;;63.98;30.70;;;;;;;10.96;44.99;100185.17;4535782;77;28529;-75
2022/03/25 07:08:47;;;;;;;64.12;29.77;;;;;;;11.38;43.97;100186.30;4563927;77;28491;-74
2022/03/25 07:14:48;;;;;;;63.20;30.00;;;;;;;11.65;43.38;100182.75;4550750;77;28542;-73
2022/03/25 07:20:49;;;;;;;65.32;30.00;;;;;;;12.03;42.49;100181.23;4531225;76;28489;-78
2022/03/25 07:26:51;;;;;;;63.33;29.12;;;;;;;11.85;42.65;100185.41;4544333;77;28496;-78
2022/03/25 07:32:52;;;;;;;64.97;29.90;;;;;;;12.22;42.22;100185.72;4528607;77;28539;-79
2022/03/25 07:38:55;;;;;;;65.00;31.52;;;;;;;12.58;41.64;100183.48;4541499;77;28476;-79
2022/03/25 07:44:57;;;;;;;65.32;29.92;;;;;;;12.72;41.27;100188.28;4523595;77;28525;-82
2022/03/25 07:50:59;;;;;;;65.62;29.30;;;;;;;12.98;41.26;100187.81;4544359;77;28511;-79
2022/03/25 07:57:00;;;;;;;55.48;25.82;;;;;;;13.29;40.85;100195.57;4535460;77;28466;-78
2022/03/25 08:03:01;;;;;;;55.85;26.17;;;;;;;13.42;40.41;100193.80;4519137;77;28517;-80
2022/03/25 08:09:03;;;;;;;48.20;23.77;;;;;;;13.63;39.54;100195.27;4492965;77;28499;-78
2022/03/25 08:15:08;;;;;;;52.83;24.77;;;;;;;13.82;38.93;100193.95;4500809;77;28515;-80
2022/03/25 08:21:11;;;;;;;51.63;25.32;;;;;;;14.18;38.21;100201.23;4500261;77;44014;-80
2022/03/25 08:33:32;;;;;;;52.65;23.55;;;;;;;14.68;37.03;100200.71;4462872;77;28437;-79
2022/03/25 08:39:34;;;;;;;42.35;20.35;;;;;;;15.00;37.15;100198.32;4466773;77;28534;-79
2022/03/25 08:45:35;;;;;;;41.65;20.95;;;;;;;15.21;36.27;100192.86;4466761;77;28506;-80
2022/03/25 08:51:36;;;;;;;44.90;21.12;;;;;;;15.56;36.01;100192.05;4464872;77;28548;-81
2022/03/25 08:57:39;;;;;;;35.70;17.60;;;;;;;15.83;35.22;100189.41;4468282;77;28550;-79
2022/03/25 09:03:40;;;;;;;27.48;13.35;;;;;;;15.91;34.17;100183.63;4502011;77;28507;-78
2022/03/25 09:09:42;;;;;;;31.62;14.98;;;;;;;15.83;32.67;100182.63;4457558;77;28448;-78
2022/03/25 09:15:43;;;;;;;32.23;15.43;;;;;;;16.15;32.82;100180.88;4468106;77;28531;-78
2022/03/25 09:21:45;;;;;;;31.05;14.90;;;;;;;16.37;32.45;100174.24;4479847;77;28518;-79
2022/03/25 09:27:46;;;;;;;27.67;12.43;;;;;;;16.47;32.66;100176.34;4517994;77;28564;-80
2022/03/25 09:33:47;;;;;;;28.90;13.30;;;;;;;16.26;31.40;100166.45;4466487;77;28525;-79
2022/03/25 09:39:50;;;;;;;27.32;12.82;;;;;;;16.60;30.87;100167.06;4492672;77;28471;-79
2022/03/25 09:45:51;;;;;;;21.80;10.98;;;;;;;16.87;30.63;100171.89;4479826;77;28558;-80
2022/03/25 09:51:53;;;;;;;21.00;11.10;;;;;;;16.62;30.03;100166.31;4478334;77;28524;-80
2022/03/25 09:57:54;;;;;;;22.45;10.65;;;;;;;17.10;29.66;100160.61;4469979;77;28478;-81
2022/03/25 10:03:55;;;;;;;21.27;11.20;;;;;;;17.42;29.99;100158.65;4461767;77;28448;-80
2022/03/25 10:10:20;;;;;;;21.42;10.85;;;;;;;17.30;29.45;100164.72;4488719;77;28498;-79
2022/03/25 10:16:28;;;;;;;20.93;9.80;;;;;;;17.73;29.72;100156.92;4469558;77;28543;-79
2022/03/25 10:22:29;;;;;;;22.07;10.08;;;;;;;17.90;29.62;100158.22;4529967;76;28518;-79
2022/03/25 10:28:40;;;;;;;19.50;9.48;;;;;;;17.68;29.19;100153.03;4495570;77;28511;-79
2022/03/25 10:34:43;;;;;;;22.22;10.55;;;;;;;17.67;28.98;100147.31;4496565;77;28534;-80
2022/03/25 10:40:56;;;;;;;20.27;9.98;;;;;;;17.86;29.13;100151.09;4492520;77;28555;-81
2022/03/25 10:46:58;;;;;;;21.05;11.75;;;;;;;17.91;29.27;100143.55;4525818;77;28507;-82
2022/03/25 10:53:11;;;;;;;22.15;10.38;;;;;;;18.17;28.82;100145.22;4533098;77;28516;-79
2022/03/25 10:59:30;;;;;;;18.50;9.78;;;;;;;18.56;29.05;100134.77;4492676;77;28556;-82
2022/03/25 11:05:32;;;;;;;18.92;9.55;;;;;;;18.52;28.75;100134.45;4528359;77;28564;-80
2022/03/25 11:11:34;;;;;;;17.92;7.17;;;;;;;18.51;28.57;100135.53;4537149;77;28530;-78
2022/03/25 11:17:36;;;;;;;12.80;6.35;;;;;;;18.37;28.89;100129.67;4537490;77;28524;-78
2022/03/25 11:23:43;;;;;;;16.27;7.42;;;;;;;18.71;28.62;100122.64;4534059;77;28517;-77
2022/03/25 11:29:48;;;;;;;14.98;6.20;;;;;;;18.55;27.94;100125.76;4523255;77;28603;-75
2022/03/25 11:36:11;;;;;;;15.18;5.75;;;;;;;18.97;28.20;100113.33;4531800;77;28489;-79
2022/03/25 11:42:40;;;;;;;13.75;5.60;;;;;;;19.03;28.32;100109.57;4538514;77;28507;-76
2022/03/25 11:48:42;;;;;;;12.43;4.92;;;;;;;19.27;28.11;100101.03;4531407;77;28492;-77
2022/03/25 11:54:45;;;;;;;9.75;4.47;;;;;;;19.39;28.27;100098.08;4530367;77;28552;-77
2022/03/25 12:00:52;;;;;;;13.08;5.12;;;;;;;19.29;28.17;100098.85;4520025;76;28544;-76
2022/03/25 12:07:02;;;;;;;12.58;5.30;;;;;;;19.61;28.15;100082.09;4511981;77;28522;-77
2022/03/25 12:13:05;;;;;;;11.03;4.65;;;;;;;19.54;28.57;100076.89;4530438;77;28575;-78
2022/03/25 12:19:30;;;;;;;11.38;5.10;;;;;;;20.08;27.74;100068.09;4535626;77;28547;-77
2022/03/25 12:25:31;;;;;;;10.05;4.80;;;;;;;20.09;27.85;100051.18;4520729;77;28461;-78
2022/03/25 12:31:33;;;;;;;10.30;5.10;;;;;;;20.26;27.52;100050.40;4528489;76;28496;-78
2022/03/25 12:37:56;;;;;;;9.83;4.78;;;;;;;20.20;27.67;100045.48;4522469;76;28496;-79
2022/03/25 12:44:02;;;;;;;10.08;4.05;;;;;;;20.19;27.64;100029.36;4532156;77;28517;-78
2022/03/25 12:50:06;;;;;;;11.25;4.65;;;;;;;20.25;27.89;100030.19;4548148;76;28458;-79
2022/03/25 12:56:11;;;;;;;10.70;5.15;;;;;;;20.11;27.94;100036.18;4543543;77;28512;-78
2022/03/25 13:02:13;;;;;;;8.03;3.90;;;;;;;19.89;27.89;100022.72;4506208;77;28552;-77
2022/03/25 13:08:15;;;;;;;9.95;4.47;;;;;;;20.31;27.68;100016.82;4490413;77;28545;-79
2022/03/25 13:14:16;;;;;;;12.75;5.12;;;;;;;20.52;27.40;100005.33;4501283;77;28450;-79
2022/03/25 13:20:25;;;;;;;11.05;5.10;;;;;;;20.38;27.52;100007.79;4480976;77;28501;-79
2022/03/25 13:26:28;;;;;;;9.03;4.53;;;;;;;20.41;27.16;100007.80;4452310;77;28487;-79
2022/03/25 13:32:37;;;;;;;10.78;4.28;;;;;;;20.82;26.82;99997.39;4461934;78;28588;-79
2022/03/25 13:38:44;;;;;;;9.13;4.58;;;;;;;20.27;27.05;100001.52;4484027;77;28530;-80
2022/03/25 13:44:45;;;;;;;10.20;4.87;;;;;;;20.65;26.35;100005.33;4468608;78;28507;-81
2022/03/25 13:50:53;;;;;;;12.68;5.90;;;;;;;20.82;26.51;99988.66;4481627;77;28484;-81
2022/03/25 13:56:57;;;;;;;11.60;5.67;;;;;;;21.22;26.45;99987.45;4481364;77;28531;-84
2022/03/25 14:02:59;;;;;;;9.35;5.60;;;;;;;21.47;26.22;99974.77;4513086;77;28483;-82
2022/03/25 14:09:01;;;;;;;10.23;4.78;;;;;;;21.54;26.08;99975.27;4520990;77;28602;-83
2022/03/25 14:15:11;;;;;;;14.10;5.17;;;;;;;21.42;26.53;99981.62;4524113;77;28503;-77
2022/03/25 14:21:23;;;;;;;10.72;4.83;;;;;;;21.40;26.18;99972.35;4518186;77;28476;-77
2022/03/25 14:27:24;;;;;;;10.43;5.12;;;;;;;21.44;26.10;99967.11;4496868;77;28482;-77
2022/03/25 14:33:26;;;;;;;11.30;4.28;;;;;;;21.49;25.96;99964.36;4511926;77;28492;-78
2022/03/25 14:39:28;;;;;;;11.00;5.28;;;;;;;20.93;26.38;99961.31;4520414;77;28505;-77
2022/03/25 14:45:30;;;;;;;12.85;5.30;;;;;;;21.28;26.09;99958.16;4508568;76;28519;-78
2022/03/25 14:51:32;;;;;;;16.60;5.87;;;;;;;21.24;26.02;99953.00;4531436;77;28476;-75
2022/03/25 14:57:34;;;;;;;10.50;5.28;;;;;;;21.89;25.71;99954.03;4523043;77;28504;-80
2022/03/25 15:03:36;;;;;;;14.68;6.87;;;;;;;21.53;25.67;99947.64;4553717;76;28534;-77
2022/03/25 15:09:38;;;;;;;14.55;7.40;;;;;;;21.95;25.11;99959.19;4553525;76;28513;-79
2022/03/25 15:15:42;;;;;;;11.73;5.37;;;;;;;22.11;25.24;99944.83;4513610;76;28529;-77
2022/03/25 15:21:43;;;;;;;11.33;4.97;;;;;;;21.77;25.44;99948.91;4518559;77;28507;-77
2022/03/25 15:27:47;;;;;;;14.70;6.35;;;;;;;21.83;25.68;99950.52;4528408;77;28510;-77
2022/03/25 15:40:11;;;;;;;19.48;8.95;;;;;;;21.11;26.10;99941.56;4531437;77;28451;-77
2022/03/25 15:46:13;;;;;;;18.80;9.08;;;;;;;21.30;25.98;99945.05;4532566;77;28500;-76
2022/03/25 15:52:14;;;;;;;12.45;6.15;;;;;;;21.31;25.85;99936.55;4531745;76;28451;-75
2022/03/25 15:58:16;;;;;;;11.93;6.10;;;;;;;20.82;26.45;99942.20;4505341;77;29040;-76
2022/03/25 16:04:18;;;;;;;14.87;6.92;;;;;;;20.58;26.66;99950.98;4539688;77;28510;-75
2022/03/25 16:10:20;;;;;;;15.35;7.28;;;;;;;20.39;26.84;99948.55;4533637;77;28541;-74
2022/03/25 16:16:21;;;;;;;14.15;7.40;;;;;;;20.66;26.61;99953.69;4527243;77;28504;-76
2022/03/25 16:22:22;;;;;;;13.98;6.75;;;;;;;20.28;27.04;99951.28;4557826;77;28468;-76
2022/03/25 16:28:25;;;;;;;14.03;6.85;;;;;;;20.44;26.91;99953.45;4531683;76;28501;-76
2022/03/25 16:34:27;;;;;;;13.28;6.67;;;;;;;20.17;27.10;99951.02;4550051;77;28534;-82
2022/03/25 16:40:28;;;;;;;16.75;6.95;;;;;;;20.13;27.19;99955.36;4497346;77;28547;-81
2022/03/25 16:46:34;;;;;;;23.90;6.97;;;;;;;20.00;27.45;99956.74;4505447;77;28510;-81
2022/03/25 16:52:37;;;;;;;22.37;6.60;;;;;;;20.03;27.59;99963.81;4522903;77;28472;-79
2022/03/25 16:58:38;;;;;;;14.87;6.58;;;;;;;20.13;27.55;99964.91;4496125;77;28512;-81
2022/03/25 17:04:40;;;;;;;18.52;6.90;;;;;;;19.41;28.18;99969.11;4519869;77;28503;-81
2022/03/25 17:10:42;;;;;;;15.03;6.95;;;;;;;19.01;28.72;99969.23;4500710;77;28560;-83
2022/03/25 17:16:45;;;;;;;15.70;7.60;;;;;;;18.73;29.05;99984.83;4499581;77;28505;-81
2022/03/25 17:22:47;;;;;;;14.60;6.60;;;;;;;18.42;29.44;99987.33;4507847;77;28430;-80
2022/03/25 17:28:51;;;;;;;26.82;11.60;;;;;;;18.18;29.85;99987.69;4499891;77;28481;-84
2022/03/25 17:34:53;;;;;;;17.73;8.30;;;;;;;17.87;30.14;99995.52;4493204;77;28524;-82
2022/03/25 17:40:55;;;;;;;17.45;7.15;;;;;;;17.63;30.62;99998.52;4491186;77;28559;-82
2022/03/25 17:46:56;;;;;;;35.50;16.30;;;;;;;17.40;31.02;99992.27;4501937;77;28502;-80
2022/03/25 17:52:58;;;;;;;15.23;7.22;;;;;;;17.13;31.57;99999.83;4500037;77;28517;-81
2022/03/25 17:59:01;;;;;;;14.03;6.78;;;;;;;17.11;31.24;99997.88;4504311;77;28504;-83
2022/03/25 18:05:03;;;;;;;15.00;7.12;;;;;;;16.83;32.00;100007.80;4506260;77;28481;-82
2022/03/25 18:11:04;;;;;;;16.23;6.78;;;;;;;16.54;32.27;100007.89;4482134;77;28488;-79
2022/03/25 18:17:06;;;;;;;14.78;7.53;;;;;;;16.42;32.48;100007.45;4476192;77;28510;-77
2022/03/25 18:23:08;;;;;;;16.85;6.90;;;;;;;16.10;33.18;100011.22;4500482;76;28551;-76
2022/03/25 18:29:12;;;;;;;14.93;6.83;;;;;;;15.92;33.48;100016.33;4525673;77;28517;-76
2022/03/25 18:35:14;;;;;;;16.50;7.05;;;;;;;15.64;33.93;100027.41;4495708;77;28466;-77
2022/03/25 18:41:15;;;;;;;16.50;7.42;;;;;;;15.48;34.12;100034.70;4507452;77;28502;-77
2022/03/25 18:47:16;;;;;;;27.40;11.93;;;;;;;15.50;34.65;100039.05;4495191;77;28502;-76
2022/03/25 18:53:17;;;;;;;20.08;7.85;;;;;;;15.17;35.32;100053.00;4501240;77;28930;-78
2022/03/25 18:59:19;;;;;;;19.80;8.63;;;;;;;15.07;35.48;100054.67;4504102;77;28460;-78
2022/03/25 19:05:22;;;;;;;20.62;7.55;;;;;;;14.86;36.48;100063.67;4485528;77;28559;-79
2022/03/25 19:11:28;;;;;;;24.67;7.92;;;;;;;14.60;36.79;100068.42;4486374;77;28516;-76
2022/03/25 19:17:27;;;;;;;16.77;7.78;;;;;;;14.44;37.16;100070.75;4497434;77;28530;-76
2022/03/25 19:23:29;;;;;;;20.10;8.28;;;;;;;14.32;37.01;100069.36;4501711;77;28553;-74
2022/03/25 19:29:31;;;;;;;23.67;8.48;;;;;;;14.01;37.93;100079.35;4496405;77;28508;-80
2022/03/25 19:35:34;;;;;;;20.08;9.30;;;;;;;14.21;37.72;100079.61;4502247;77;28461;-77
2022/03/25 19:41:36;;;;;;;24.75;8.10;;;;;;;14.12;37.93;100079.62;4533801;78;28517;-76
2022/03/25 19:47:39;;;;;;;29.57;10.45;;;;;;;13.84;38.61;100087.27;4522777;78;28480;-77
2022/03/25 19:53:43;;;;;;;26.00;10.70;;;;;;;13.75;38.22;100080.00;4474765;77;28483;-80
2022/03/25 19:59:44;;;;;;;21.93;10.13;;;;;;;13.83;38.05;100079.38;4480649;77;28553;-80
2022/03/25 20:05:45;;;;;;;29.40;12.40;;;;;;;13.49;39.45;100090.59;4518235;77;28649;-78
2022/03/25 20:11:47;;;;;;;28.45;11.50;;;;;;;13.36;39.80;100086.92;4558879;77;28487;-77
2022/03/25 20:17:48;;;;;;;34.40;13.45;;;;;;;13.16;40.15;100090.35;4545540;77;28495;-77
2022/03/25 20:23:50;;;;;;;31.00;13.68;;;;;;;13.00;40.78;100098.48;4524956;77;28551;-73
2022/03/25 20:29:52;;;;;;;28.42;12.70;;;;;;;12.93;40.34;100095.34;4531452;77;28515;-79
2022/03/25 20:35:54;;;;;;;28.47;12.95;;;;;;;13.11;40.05;100095.91;4526516;77;28499;-79
2022/03/25 20:41:55;;;;;;;31.17;13.55;;;;;;;12.75;41.44;100100.67;4524399;77;28545;-79
2022/03/25 20:47:57;;;;;;;31.95;13.88;;;;;;;12.67;41.77;100107.17;4536138;77;28457;-77
2022/03/25 20:53:58;;;;;;;29.45;12.75;;;;;;;12.57;41.37;100104.94;4546519;78;28516;-79
2022/03/25 21:00:00;;;;;;;35.85;15.45;;;;;;;12.53;41.98;100107.24;4544302;77;28578;-79
2022/03/25 21:06:01;;;;;;;32.88;15.00;;;;;;;12.32;42.62;100103.55;4525405;77;28519;-78
2022/03/25 21:12:03;;;;;;;43.08;19.07;;;;;;;12.11;43.07;100110.41;4518888;77;28513;-79
2022/03/25 21:18:05;;;;;;;41.68;15.70;;;;;;;11.95;43.09;100111.69;4519954;77;28539;-80
2022/03/25 21:24:07;;;;;;;43.95;18.67;;;;;;;12.00;42.75;100107.81;4572712;77;28544;-80
2022/03/25 21:30:09;;;;;;;50.35;22.55;;;;;;;11.81;43.42;100119.50;4527829;77;28513;-80
2022/03/25 21:36:11;;;;;;;45.20;20.12;;;;;;;11.56;45.13;100126.94;4558117;77;28544;-79
2022/03/25 21:42:13;;;;;;;42.53;19.65;;;;;;;11.54;44.57;100127.67;4565114;77;28436;-80
2022/03/25 21:48:17;;;;;;;47.58;20.75;;;;;;;11.42;45.07;100141.78;4552740;77;28579;-81
2022/03/25 21:54:20;;;;;;;49.70;23.02;;;;;;;11.33;45.94;100137.65;4574430;76;28476;-77
2022/03/25 22:00:23;;;;;;;50.23;23.12;;;;;;;11.28;45.01;100143.66;4547473;77;28554;-79
2022/03/25 22:06:24;;;;;;;43.83;19.45;;;;;;;11.04;46.05;100146.96;4554228;77;28576;-79
2022/03/25 22:12:26;;;;;;;52.83;24.02;;;;;;;11.17;45.13;100149.67;4534435;77;28504;-78
2022/03/25 22:18:29;;;;;;;58.78;25.82;;;;;;;11.02;46.94;100152.57;4546227;77;28513;-79
2022/03/25 22:24:30;;;;;;;51.65;22.82;;;;;;;11.01;45.80;100154.95;4434442;78;28572;-79
2022/03/25 22:30:32;;;;;;;78.47;34.05;;;;;;;10.92;46.55;100157.00;4569696;76;28478;-79
2022/03/25 22:36:34;;;;;;;70.95;31.77;;;;;;;10.96;47.53;100158.77;4582252;76;28527;-80
2022/03/25 22:42:36;;;;;;;84.92;37.08;;;;;;;10.95;46.51;100158.45;4566210;76;28503;-80
2022/03/25 22:48:37;;;;;;;76.37;34.70;;;;;;;10.87;47.26;100164.34;4545091;76;28508;-80
2022/03/25 22:54:39;;;;;;;66.62;28.67;;;;;;;11.10;46.04;100167.17;4569850;76;28444;-80
2022/03/25 23:01:08;;;;;;;71.07;31.70;;;;;;;10.94;45.91;100158.15;4569769;76;28523;-79
2022/03/25 23:07:10;;;;;;;58.05;27.15;;;;;;;10.93;45.96;100161.88;4573840;76;28462;-79
2022/03/25 23:13:12;;;;;;;74.15;34.33;;;;;;;10.53;46.61;100155.39;4616607;76;28529;-79
2022/03/25 23:19:14;;;;;;;71.00;31.27;;;;;;;10.48;47.35;100157.03;4576617;76;28504;-79
2022/03/25 23:25:15;;;;;;;68.90;30.77;;;;;;;10.44;47.92;100153.92;4518180;76;28545;-79
2022/03/25 23:31:18;;;;;;;75.20;36.13;;;;;;;10.44;48.26;100148.55;4593510;76;28483;-80
2022/03/25 23:37:19;;;;;;;91.00;37.90;;;;;;;10.63;47.40;100145.61;4609494;76;28513;-80
2022/03/25 23:43:20;;;;;;;87.12;38.53;;;;;;;10.62;47.84;100143.11;4578349;76;28495;-80
2022/03/25 23:49:22;;;;;;;82.92;37.55;;;;;;;10.41;48.68;100142.20;4557288;76;28507;-80
2022/03/25 23:55:23;;;;;;;87.22;38.20;;;;;;;10.45;48.43;100138.09;4613644;76;28453;-80
